Angora, NE (69331)

8:42 AM MDT on September 02, 2014 (GMT -0600)
Wayne Rd. | Change Station
CLOSE
Current Station
Personal Weather Station
Location: Alliance, NE
Elevation: 4091 ft
Nearby Weather Stations

Elev 4091 ft 42.02 °N, 103.05 °W | Updated 4 minutes ago

Clear
Clear
59.9 °F
Feels Like 59.9 °F
N
16.0
Wind Variable Wind from WSW
Gusts 17.0 mph

Today
High -- | Low -- °F
--% Chance of Precip.
Yesterday
High -- | Low -- °F
Precip. -- in
6:19 AM 7:24 PM
First Quarter, 52% visible
Pressure 30.01 in
Visibility 10.0 miles
Clouds Clear
Dew Point 49 °F
Humidity 68%
Rainfall 0.00 in
Snow Depth Not available.
UV 1 out of 12
Pollen 8.80 out of 12
Air Quality Not available.
Flu Activity Not available.
METAR KAIA 021353Z AUTO 00000KT 10SM CLR 10/08 A3006 RMK AO2 SLP162 T01000083

More Conditions Fewer Conditions

Pressure 30.01 in
Visibility 10.0 miles
Clouds Clear
Dew Point 49 °F
Humidity 68%
Rainfall 0.00 in
Snow Depth Not available.
UV 1 out of 12
Pollen 8.80 out of 12
Air Quality Not available.
Flu Activity Not available.
METAR KAIA 021353Z AUTO 00000KT 10SM CLR 10/08 A3006 RMK AO2 SLP162 T01000083

More Conditions Fewer Conditions

10-Day Weather Forecast

Almanac

Astronomy

Sep. 02, 2014 Rise Set
Actual Time 6:19 AM MDT 7:24 PM MDT
Civil Twilight 5:50 AM MDT 7:52 PM MDT
Nautical Twilight 5:16 AM MDT 8:26 PM MDT
Astronomical Twilight 4:40 AM MDT 9:02 PM MDT
Moon 2:12 PM MDT No Moon Set
Length of Visible Light 14h 02m
Length of Day
13h 04m
Tomorrow will be 2m 43s shorter.
First Quarter, 52% of the Moon is Illuminated
Today
First Quarter
Sep 8
Full
Sep 15
Last Quarter
Sep 24
New
Oct 1
First Quarter

Today's Extremes

State Highs State Lows

Community

WunderPhotos

Upload Photos

1,749,682 photos uploaded!

WunderBlogs® & News

Nearby

Snow Depth

Station Depth Elevation
No new snow has been reported.

Earthquake Activity

City Distance Mag. Time & Date
No recent earthquake activity has been reported nearby.
Minimum magnitude displayed is 2.5.

Coastal Water Temperatures

Place Temperature
No Stations Reporting

Nearby Weather Stations